createdAt,value
2023-04-09T00:02:21.637Z,99627.84
2023-04-09T00:04:49.681Z,99629.28
2023-04-09T00:07:16.765Z,99634.44
2023-04-09T00:09:43.545Z,99623.34
2023-04-09T00:12:10.702Z,99625.88
2023-04-09T00:14:37.678Z,99636.00
2023-04-09T00:17:04.560Z,99632.75
2023-04-09T00:19:31.519Z,99632.03
2023-04-09T00:21:58.538Z,99631.13
2023-04-09T00:24:25.640Z,99631.56
2023-04-09T00:26:53.654Z,99641.75
2023-04-09T00:29:20.764Z,99640.88
2023-04-09T00:31:47.745Z,99631.09
2023-04-09T00:34:14.664Z,99631.84
2023-04-09T00:36:41.564Z,99642.31
2023-04-09T00:39:08.649Z,99640.91
2023-04-09T00:41:35.721Z,99629.91
2023-04-09T00:44:02.784Z,99635.53
2023-04-09T00:46:29.718Z,99639.16
2023-04-09T00:48:56.702Z,99648.72
2023-04-09T00:51:23.858Z,99647.00
2023-04-09T00:53:51.150Z,99639.88
2023-04-09T00:56:19.986Z,99635.91
2023-04-09T00:58:47.345Z,99628.53
2023-04-09T01:03:49.753Z,99622.38
2023-04-09T01:06:40.084Z,99632.44
2023-04-09T01:09:19.194Z,99630.38
2023-04-09T01:12:11.693Z,99629.53
2023-04-09T01:15:02.018Z,99640.97
2023-04-09T01:17:38.401Z,99643.00
2023-04-09T01:20:16.698Z,99639.91
2023-04-09T01:22:56.553Z,99638.03
2023-04-09T01:25:41.479Z,99634.88
2023-04-09T01:28:27.775Z,99622.47
2023-04-09T01:31:04.425Z,99638.00
2023-04-09T01:33:32.752Z,99641.09
2023-04-09T01:36:01.390Z,99645.31
2023-04-09T01:38:29.029Z,99647.81
2023-04-09T01:40:57.950Z,99649.09
2023-04-09T01:43:44.302Z,99640.78
2023-04-09T01:46:12.314Z,99655.31
2023-04-09T01:48:39.842Z,99652.25
2023-04-09T01:51:06.950Z,99654.81
2023-04-09T01:53:33.784Z,99660.03
2023-04-09T01:56:01.755Z,99658.97
2023-04-09T01:58:28.867Z,99652.13
2023-04-09T02:01:13.085Z,99655.50
2023-04-09T02:03:51.717Z,99667.59
2023-04-09T02:06:43.229Z,99654.94
2023-04-09T02:09:11.585Z,99654.75
2023-04-09T02:11:42.181Z,99655.69
2023-04-09T02:14:12.089Z,99643.00
2023-04-09T02:16:40.200Z,99653.03
2023-04-09T02:19:07.095Z,99653.50
2023-04-09T02:21:33.932Z,99656.81
2023-04-09T02:24:00.854Z,99649.91
2023-04-09T02:26:27.883Z,99654.41
2023-04-09T02:28:54.867Z,99659.19
2023-04-09T02:31:21.874Z,99659.19
2023-04-09T02:33:48.724Z,99651.69
2023-04-09T02:36:15.721Z,99659.00
2023-04-09T02:38:43.157Z,99654.81
2023-04-09T02:41:10.044Z,99662.00
2023-04-09T02:43:37.511Z,99664.81
2023-04-09T02:46:04.751Z,99662.69
2023-04-09T02:48:31.688Z,99662.84
2023-04-09T02:50:58.588Z,99654.81
2023-04-09T02:53:26.080Z,99654.66
2023-04-09T02:55:53.012Z,99654.63
2023-04-09T02:58:19.921Z,99649.34
2023-04-09T03:00:46.808Z,99662.13
2023-04-09T03:03:14.159Z,99666.41
2023-04-09T03:05:41.162Z,99658.06
2023-04-09T03:08:08.190Z,99644.97
2023-04-09T03:10:34.982Z,99646.63
2023-04-09T03:13:01.782Z,99647.66
2023-04-09T03:15:28.913Z,99654.09
2023-04-09T03:17:55.745Z,99649.81
2023-04-09T03:20:22.713Z,99641.56
2023-04-09T03:22:49.584Z,99656.84
2023-04-09T03:25:17.051Z,99656.03
2023-04-09T03:27:44.113Z,99650.59
2023-04-09T03:30:11.689Z,99649.56
2023-04-09T03:32:38.565Z,99644.19
2023-04-09T03:35:06.183Z,99657.00
2023-04-09T03:37:33.170Z,99650.00
2023-04-09T03:40:00.171Z,99654.81
2023-04-09T03:42:29.630Z,99653.84
2023-04-09T03:44:56.540Z,99653.94
2023-04-09T03:47:23.419Z,99664.06
2023-04-09T03:49:50.395Z,99660.06
2023-04-09T03:52:17.352Z,99662.50
2023-04-09T03:54:44.191Z,99656.19
2023-04-09T03:57:11.065Z,99663.84
2023-04-09T03:59:37.963Z,99662.97
2023-04-09T04:02:04.937Z,99660.34
2023-04-09T04:04:31.998Z,99667.28
2023-04-09T04:06:58.907Z,99669.66
2023-04-09T04:09:26.045Z,99660.16
2023-04-09T04:11:52.908Z,99647.22
2023-04-09T04:14:19.744Z,99670.75
2023-04-09T04:16:46.696Z,99665.59
2023-04-09T04:19:13.643Z,99658.59
2023-04-09T04:21:40.917Z,99667.09
2023-04-09T04:24:07.762Z,99678.22
2023-04-09T04:26:34.570Z,99673.09
2023-04-09T04:29:01.545Z,99679.84
2023-04-09T04:31:28.351Z,99672.72
2023-04-09T04:33:55.125Z,99672.81
2023-04-09T04:36:21.965Z,99680.06
2023-04-09T04:38:48.834Z,99679.13
2023-04-09T04:41:15.865Z,99672.00
2023-04-09T04:43:42.743Z,99678.13
2023-04-09T04:46:09.655Z,99682.50
2023-04-09T04:48:36.513Z,99695.47
2023-04-09T04:51:03.424Z,99693.97
2023-04-09T04:53:30.395Z,99703.97
2023-04-09T04:55:57.550Z,99702.03
2023-04-09T04:58:25.350Z,99699.81
2023-04-09T05:00:52.193Z,99696.44
2023-04-09T05:03:19.298Z,99707.63
2023-04-09T05:05:46.597Z,99708.72
2023-04-09T05:08:13.455Z,99699.16
2023-04-09T05:10:44.016Z,99704.41
2023-04-09T05:13:11.109Z,99697.09
2023-04-09T05:15:39.913Z,99707.97
2023-04-09T05:18:07.715Z,99705.94
2023-04-09T05:20:35.068Z,99716.97
2023-04-09T05:23:01.985Z,99718.25
2023-04-09T05:25:28.813Z,99715.69
2023-04-09T05:27:56.150Z,99708.88
2023-04-09T05:30:23.272Z,99702.97
2023-04-09T05:32:50.190Z,99715.41
2023-04-09T05:35:17.112Z,99723.25
2023-04-09T05:37:43.896Z,99720.81
2023-04-09T05:40:11.670Z,99711.94
2023-04-09T05:42:38.577Z,99717.78
2023-04-09T05:45:06.214Z,99721.41
2023-04-09T05:47:33.076Z,99727.91
2023-04-09T05:49:59.992Z,99720.81
2023-04-09T05:52:27.133Z,99724.78
2023-04-09T05:54:53.979Z,99718.06
2023-04-09T05:57:20.850Z,99723.63
2023-04-09T05:59:47.641Z,99720.88
2023-04-09T06:02:14.588Z,99723.25
2023-04-09T06:04:41.578Z,99724.25
2023-04-09T06:07:08.418Z,99727.13
2023-04-09T06:09:35.515Z,99725.84
2023-04-09T06:12:02.729Z,99734.88
2023-04-09T06:14:29.613Z,99725.94
2023-04-09T06:16:56.381Z,99721.91
2023-04-09T06:19:23.241Z,99729.34
2023-04-09T06:21:50.083Z,99721.47
2023-04-09T06:24:17.131Z,99723.06
2023-04-09T06:26:43.982Z,99722.53
2023-04-09T06:29:10.751Z,99720.72
2023-04-09T06:31:56.126Z,99721.38
2023-04-09T06:34:23.059Z,99720.53
2023-04-09T06:36:50.015Z,99723.19
2023-04-09T06:39:17.076Z,99715.75
2023-04-09T06:41:43.873Z,99720.97
2023-04-09T06:44:10.850Z,99725.44
2023-04-09T06:46:37.857Z,99725.28
2023-04-09T06:49:04.771Z,99715.44
2023-04-09T06:51:32.002Z,99717.69
2023-04-09T06:53:59.021Z,99718.84
2023-04-09T06:56:25.937Z,99732.63
2023-04-09T06:58:52.709Z,99734.16
2023-04-09T07:01:20.460Z,99732.22
2023-04-09T07:03:47.751Z,99744.91
2023-04-09T07:06:14.613Z,99749.31
2023-04-09T07:08:41.448Z,99743.38
2023-04-09T07:11:09.966Z,99738.91
2023-04-09T07:13:36.753Z,99743.09
2023-04-09T07:16:03.703Z,99749.09
2023-04-09T07:18:31.196Z,99747.44
2023-04-09T07:20:58.008Z,99743.91
2023-04-09T07:23:24.909Z,99748.34
2023-04-09T07:25:51.878Z,99747.16
2023-04-09T07:28:18.696Z,99748.34
2023-04-09T07:30:47.172Z,99741.88
2023-04-09T07:33:13.994Z,99743.13
2023-04-09T07:35:40.936Z,99741.03
2023-04-09T07:38:07.908Z,99741.16
2023-04-09T07:40:35.373Z,99741.72
2023-04-09T07:43:02.336Z,99749.41
2023-04-09T07:45:29.179Z,99747.53
2023-04-09T07:47:56.108Z,99753.25
2023-04-09T07:50:23.079Z,99751.16
2023-04-09T07:52:50.008Z,99752.59
2023-04-09T07:55:18.442Z,99755.66
2023-04-09T07:57:45.470Z,99746.81
2023-04-09T08:00:13.039Z,99756.25
2023-04-09T08:02:40.273Z,99761.94
2023-04-09T08:05:08.144Z,99761.16
2023-04-09T08:07:35.124Z,99758.47
2023-04-09T08:10:01.945Z,99761.03
2023-04-09T08:12:28.784Z,99758.97
2023-04-09T08:14:55.647Z,99762.34
2023-04-09T08:17:22.665Z,99757.75
2023-04-09T08:19:49.991Z,99760.25
2023-04-09T08:22:17.046Z,99760.31
2023-04-09T08:24:44.011Z,99753.25
2023-04-09T08:27:11.262Z,99746.75
2023-04-09T08:29:40.708Z,99747.81
2023-04-09T08:32:08.239Z,99753.75
2023-04-09T08:34:36.157Z,99755.44
2023-04-09T08:37:03.023Z,99745.06
2023-04-09T08:39:29.864Z,99752.66
2023-04-09T08:42:02.405Z,99754.28
2023-04-09T08:44:32.633Z,99750.19
2023-04-09T08:47:00.819Z,99756.47
2023-04-09T08:49:27.673Z,99752.97
2023-04-09T08:51:54.518Z,99747.66
2023-04-09T08:54:21.390Z,99756.44
2023-04-09T08:56:48.234Z,99745.56
2023-04-09T08:59:18.844Z,99746.78
2023-04-09T09:01:48.101Z,99751.41
2023-04-09T09:04:15.576Z,99742.75
2023-04-09T09:06:42.583Z,99751.41
2023-04-09T09:09:14.626Z,99750.50
2023-04-09T09:11:43.807Z,99753.69
2023-04-09T09:14:12.921Z,99751.41
2023-04-09T09:16:56.332Z,99747.03
2023-04-09T09:19:26.607Z,99739.75
2023-04-09T09:21:58.497Z,99744.34
2023-04-09T09:24:25.515Z,99736.31
2023-04-09T09:26:54.559Z,99739.13
2023-04-09T09:29:21.933Z,99739.78
2023-04-09T09:31:54.232Z,99739.88
2023-04-09T09:34:23.891Z,99731.38
2023-04-09T09:36:51.032Z,99741.41
2023-04-09T09:39:18.144Z,99743.94
2023-04-09T09:41:46.115Z,99731.09
2023-04-09T09:44:30.281Z,99738.97
2023-04-09T09:46:58.911Z,99727.78
2023-04-09T09:49:25.751Z,99733.16
2023-04-09T09:51:56.965Z,99735.81
2023-04-09T09:54:26.493Z,99730.56
2023-04-09T09:56:58.362Z,99731.34
2023-04-09T09:59:30.598Z,99726.84
2023-04-09T10:02:02.476Z,99732.25
2023-04-09T10:04:30.418Z,99733.19
2023-04-09T10:06:58.157Z,99729.63
2023-04-09T10:09:28.095Z,99727.81
2023-04-09T10:11:56.150Z,99730.41
2023-04-09T10:14:23.376Z,99721.19
2023-04-09T10:16:51.629Z,99720.47
2023-04-09T10:19:18.825Z,99716.06
2023-04-09T10:22:04.866Z,99709.00
2023-04-09T10:24:51.528Z,99718.00
2023-04-09T10:27:18.580Z,99719.81
2023-04-09T10:29:47.745Z,99714.22
2023-04-09T10:32:26.955Z,99708.13
2023-04-09T10:34:58.020Z,99710.16
2023-04-09T10:37:26.746Z,99705.72
2023-04-09T10:39:54.237Z,99712.56
2023-04-09T10:42:27.777Z,99715.09
2023-04-09T10:45:10.931Z,99709.94
2023-04-09T10:47:40.131Z,99708.13
2023-04-09T10:50:22.194Z,99707.19
2023-04-09T10:52:56.699Z,99705.53
2023-04-09T10:55:37.258Z,99706.41
2023-04-09T10:58:11.349Z,99694.50
2023-04-09T11:00:41.525Z,99690.22
2023-04-09T11:03:21.978Z,99693.00
2023-04-09T11:05:54.137Z,99699.97
2023-04-09T11:08:22.380Z,99686.25
2023-04-09T11:10:52.027Z,99695.78
2023-04-09T11:13:21.084Z,99695.63
2023-04-09T11:15:47.937Z,99693.13
2023-04-09T11:18:19.817Z,99695.72
2023-04-09T11:20:46.913Z,99686.28
2023-04-09T11:23:14.138Z,99686.38
2023-04-09T11:25:40.994Z,99679.56
2023-04-09T11:28:08.705Z,99688.25
2023-04-09T11:30:37.614Z,99681.38
2023-04-09T11:33:04.662Z,99684.03
2023-04-09T11:35:35.153Z,99687.63
2023-04-09T11:38:06.851Z,99677.84
2023-04-09T11:40:33.772Z,99674.31
2023-04-09T11:43:01.273Z,99678.63
2023-04-09T11:45:29.985Z,99673.44
2023-04-09T11:47:57.734Z,99673.38
2023-04-09T11:50:25.226Z,99671.84
2023-04-09T11:52:52.684Z,99665.84
2023-04-09T11:55:27.125Z,99658.94
2023-04-09T11:58:01.021Z,99662.44
2023-04-09T12:00:29.134Z,99667.63
2023-04-09T12:03:02.479Z,99660.69
2023-04-09T12:05:32.060Z,99661.47
2023-04-09T12:08:07.306Z,99661.47
2023-04-09T12:10:36.978Z,99655.34
2023-04-09T12:13:09.332Z,99650.94
2023-04-09T12:15:38.472Z,99651.84
2023-04-09T12:18:09.697Z,99646.50
2023-04-09T12:20:39.743Z,99652.41
2023-04-09T12:23:07.799Z,99648.28
2023-04-09T12:25:43.213Z,99649.22
2023-04-09T12:28:18.655Z,99646.56
2023-04-09T12:30:46.466Z,99634.28
2023-04-09T12:33:13.312Z,99643.94
2023-04-09T12:35:40.136Z,99640.53
2023-04-09T12:38:07.023Z,99640.59
2023-04-09T12:40:35.822Z,99642.38
2023-04-09T12:43:03.113Z,99633.66
2023-04-09T12:45:30.767Z,99639.72
2023-04-09T12:47:58.317Z,99623.25
2023-04-09T12:50:26.124Z,99627.66
2023-04-09T12:52:53.049Z,99626.69
2023-04-09T12:55:20.019Z,99613.69
2023-04-09T12:57:47.398Z,99615.41
2023-04-09T13:00:15.194Z,99616.34
2023-04-09T13:02:42.488Z,99617.25
2023-04-09T13:05:09.667Z,99606.81
2023-04-09T13:07:36.537Z,99605.97
2023-04-09T13:10:03.569Z,99599.03
2023-04-09T13:12:30.708Z,99605.09
2023-04-09T13:14:59.416Z,99597.22
2023-04-09T13:17:26.388Z,99601.69
2023-04-09T13:19:53.837Z,99599.09
2023-04-09T13:22:21.299Z,99599.06
2023-04-09T13:24:48.135Z,99590.34
2023-04-09T13:27:15.018Z,99585.00
2023-04-09T13:30:00.300Z,99592.84
2023-04-09T13:32:27.251Z,99591.09
2023-04-09T13:34:55.388Z,99590.19
2023-04-09T13:37:22.218Z,99584.09
2023-04-09T13:39:49.970Z,99572.72
2023-04-09T13:42:17.295Z,99577.97
2023-04-09T13:44:45.633Z,99580.53
2023-04-09T13:47:13.758Z,99569.25
2023-04-09T13:49:41.426Z,99569.22
2023-04-09T13:52:08.808Z,99577.88
2023-04-09T13:54:36.228Z,99573.63
2023-04-09T13:57:03.645Z,99566.50
2023-04-09T13:59:30.602Z,99572.53
2023-04-09T14:01:57.889Z,99569.06
2023-04-09T14:04:24.801Z,99568.25
2023-04-09T14:06:51.626Z,99571.53
2023-04-09T14:09:18.506Z,99563.72
2023-04-09T14:11:45.499Z,99568.84
2023-04-09T14:14:12.390Z,99567.19
2023-04-09T14:16:39.291Z,99564.34
2023-04-09T14:19:06.659Z,99566.19
2023-04-09T14:21:34.436Z,99566.19
2023-04-09T14:24:01.430Z,99569.53
2023-04-09T14:26:29.309Z,99570.28
2023-04-09T14:28:56.562Z,99563.38
2023-04-09T14:31:23.502Z,99569.53
2023-04-09T14:33:50.434Z,99572.13
2023-04-09T14:36:17.921Z,99552.97
2023-04-09T14:38:44.795Z,99568.56
2023-04-09T14:41:11.665Z,99563.38
2023-04-09T14:43:39.848Z,99562.47
2023-04-09T14:46:11.765Z,99559.09
2023-04-09T14:48:42.377Z,99555.50
2023-04-09T14:51:12.173Z,99559.84
2023-04-09T14:53:39.209Z,99554.72
2023-04-09T14:56:06.787Z,99549.56
2023-04-09T14:58:33.620Z,99547.84
2023-04-09T15:01:00.492Z,99553.13
2023-04-09T15:03:27.640Z,99540.19
2023-04-09T15:05:54.749Z,99546.25
2023-04-09T15:08:21.690Z,99540.06
2023-04-09T15:10:48.583Z,99534.78
2023-04-09T15:13:15.561Z,99543.44
2023-04-09T15:15:44.271Z,99546.75
2023-04-09T15:18:11.368Z,99548.44
2023-04-09T15:20:56.937Z,99546.56
2023-04-09T15:23:23.757Z,99550.75
2023-04-09T15:25:51.030Z,99539.53
2023-04-09T15:28:17.783Z,99548.00
2023-04-09T15:30:44.841Z,99557.63
2023-04-09T15:33:13.480Z,99551.63
2023-04-09T15:35:40.340Z,99554.34
2023-04-09T15:38:07.297Z,99558.56
2023-04-09T15:40:34.070Z,99562.91
2023-04-09T15:43:00.883Z,99557.50
2023-04-09T15:45:27.791Z,99549.56
2023-04-09T15:47:54.653Z,99550.47
2023-04-09T15:50:21.606Z,99552.19
2023-04-09T15:52:49.018Z,99557.22
2023-04-09T15:55:16.229Z,99553.88
2023-04-09T15:57:46.823Z,99547.81
2023-04-09T16:00:14.238Z,99548.50
2023-04-09T16:02:41.518Z,99550.09
2023-04-09T16:05:08.570Z,99547.53
2023-04-09T16:07:35.471Z,99553.19
2023-04-09T16:10:02.652Z,99550.50
2023-04-09T16:12:29.483Z,99554.66
2023-04-09T16:14:56.362Z,99547.59
2023-04-09T16:17:23.838Z,99555.47
2023-04-09T16:19:50.672Z,99549.41
2023-04-09T16:22:17.790Z,99549.38
2023-04-09T16:24:44.602Z,99557.94
2023-04-09T16:27:13.166Z,99560.38
2023-04-09T16:29:40.062Z,99564.78
2023-04-09T16:32:07.009Z,99555.13
2023-04-09T16:34:33.829Z,99558.69
2023-04-09T16:37:00.688Z,99562.81
2023-04-09T16:39:27.488Z,99562.75
2023-04-09T16:41:54.257Z,99553.19
2023-04-09T16:44:21.126Z,99556.72
2023-04-09T16:46:47.978Z,99561.94
2023-04-09T16:49:15.380Z,99562.69
2023-04-09T16:51:42.359Z,99561.72
2023-04-09T16:54:09.268Z,99563.25
2023-04-09T16:56:36.278Z,99569.38
2023-04-09T16:59:03.169Z,99560.59
2023-04-09T17:01:30.175Z,99568.47
2023-04-09T17:03:57.485Z,99563.97
2023-04-09T17:06:24.664Z,99576.16
2023-04-09T17:08:51.856Z,99559.59
2023-04-09T17:11:19.009Z,99565.63
2023-04-09T17:13:45.910Z,99565.63
2023-04-09T17:16:13.159Z,99562.97
2023-04-09T17:18:39.994Z,99576.00
2023-04-09T17:21:07.327Z,99573.19
2023-04-09T17:23:34.181Z,99581.06
2023-04-09T17:26:02.375Z,99585.31
2023-04-09T17:28:29.245Z,99579.28
2023-04-09T17:30:56.207Z,99585.19
2023-04-09T17:33:23.113Z,99583.38
2023-04-09T17:35:50.005Z,99589.41
2023-04-09T17:38:21.366Z,99586.75
2023-04-09T17:40:48.417Z,99583.09
2023-04-09T17:43:15.823Z,99589.13
2023-04-09T17:45:42.690Z,99595.94
2023-04-09T17:48:09.621Z,99604.50
2023-04-09T17:50:39.510Z,99596.69
2023-04-09T17:53:06.343Z,99605.41
2023-04-09T17:55:33.224Z,99607.91
2023-04-09T17:58:01.562Z,99603.47
2023-04-09T18:00:28.432Z,99619.97
2023-04-09T18:02:57.755Z,99608.69
2023-04-09T18:05:25.097Z,99616.28
2023-04-09T18:07:53.291Z,99618.88
2023-04-09T18:10:21.871Z,99624.81
2023-04-09T18:12:48.903Z,99620.44
2023-04-09T18:15:16.779Z,99631.91
2023-04-09T18:17:43.748Z,99644.81
2023-04-09T18:20:12.978Z,99636.16
2023-04-09T18:22:39.797Z,99636.09
2023-04-09T18:25:07.320Z,99630.78
2023-04-09T18:27:35.081Z,99636.59
2023-04-09T18:30:02.875Z,99640.31
2023-04-09T18:32:30.121Z,99640.38
2023-04-09T18:34:57.143Z,99648.16
2023-04-09T18:37:23.976Z,99640.38
2023-04-09T18:39:50.969Z,99641.94
2023-04-09T18:42:17.910Z,99653.75
2023-04-09T18:44:45.819Z,99652.00
2023-04-09T18:47:12.658Z,99654.63
2023-04-09T18:49:44.014Z,99654.63
2023-04-09T18:52:11.075Z,99649.28
2023-04-09T18:54:38.994Z,99659.66
2023-04-09T18:57:06.046Z,99669.91
2023-04-09T18:59:51.906Z,99665.69
2023-04-09T19:02:18.836Z,99653.41
2023-04-09T19:04:46.090Z,99658.47
2023-04-09T19:07:13.306Z,99661.19
2023-04-09T19:09:41.782Z,99657.91
2023-04-09T19:12:08.581Z,99658.66
2023-04-09T19:14:36.681Z,99660.22
2023-04-09T19:17:03.655Z,99660.22
2023-04-09T19:19:30.483Z,99657.63
2023-04-09T19:21:57.518Z,99656.78
2023-04-09T19:24:25.231Z,99656.63
2023-04-09T19:26:55.203Z,99659.28
2023-04-09T19:29:22.224Z,99654.13
2023-04-09T19:31:49.301Z,99651.31
2023-04-09T19:34:17.014Z,99656.63
2023-04-09T19:36:43.876Z,99652.38
2023-04-09T19:39:11.263Z,99651.38
2023-04-09T19:41:38.267Z,99647.81
2023-04-09T19:44:07.770Z,99646.88
2023-04-09T19:46:34.856Z,99648.00
2023-04-09T19:49:01.799Z,99641.00
2023-04-09T19:51:29.114Z,99646.88
2023-04-09T19:53:56.595Z,99656.28
2023-04-09T19:56:23.398Z,99657.34
2023-04-09T19:58:50.241Z,99648.63
2023-04-09T20:01:17.166Z,99650.56
2023-04-09T20:03:44.866Z,99643.56
2023-04-09T20:06:12.116Z,99649.59
2023-04-09T20:08:39.055Z,99655.56
2023-04-09T20:11:07.046Z,99653.88
2023-04-09T20:13:34.404Z,99640.06
2023-04-09T20:16:01.696Z,99650.50
2023-04-09T20:18:28.928Z,99643.56
2023-04-09T20:20:55.835Z,99641.56
2023-04-09T20:23:22.657Z,99645.16
2023-04-09T20:25:54.218Z,99650.38
2023-04-09T20:28:21.269Z,99639.22
2023-04-09T20:30:48.052Z,99637.34
2023-04-09T20:33:14.856Z,99644.28
2023-04-09T20:35:41.815Z,99642.56
2023-04-09T20:38:08.657Z,99640.72
2023-04-09T20:40:38.356Z,99650.38
2023-04-09T20:43:05.281Z,99642.41
2023-04-09T20:45:32.091Z,99651.09
2023-04-09T20:47:58.965Z,99658.84
2023-04-09T20:50:26.097Z,99654.31
2023-04-09T20:52:52.944Z,99657.56
2023-04-09T20:55:38.909Z,99655.09
2023-04-09T20:58:06.080Z,99655.03
2023-04-09T21:00:32.960Z,99649.81
2023-04-09T21:03:00.203Z,99656.09
2023-04-09T21:05:27.113Z,99654.41
2023-04-09T21:07:54.007Z,99651.81
2023-04-09T21:10:21.067Z,99656.19
2023-04-09T21:12:48.347Z,99663.00
2023-04-09T21:15:15.456Z,99646.56
2023-04-09T21:17:42.366Z,99650.69
2023-04-09T21:20:09.731Z,99646.19
2023-04-09T21:22:36.849Z,99636.53
2023-04-09T21:25:04.333Z,99650.38
2023-04-09T21:27:31.391Z,99655.56
2023-04-09T21:29:58.243Z,99659.66
2023-04-09T21:32:25.426Z,99662.16
2023-04-09T21:34:52.328Z,99660.47
2023-04-09T21:37:19.143Z,99659.56
2023-04-09T21:39:48.348Z,99663.06
2023-04-09T21:42:15.148Z,99661.19
2023-04-09T21:44:41.936Z,99661.06
2023-04-09T21:47:09.573Z,99655.03
2023-04-09T21:49:40.270Z,99659.28
2023-04-09T21:52:14.549Z,99659.38
2023-04-09T21:54:42.572Z,99654.88
2023-04-09T21:57:12.283Z,99660.69
2023-04-09T21:59:41.428Z,99649.16
2023-04-09T22:02:09.116Z,99656.78
2023-04-09T22:04:36.256Z,99649.09
2023-04-09T22:07:04.113Z,99653.56
2023-04-09T22:09:31.893Z,99636.09
2023-04-09T22:11:59.816Z,99646.78
2023-04-09T22:14:29.540Z,99651.88
2023-04-09T22:16:58.159Z,99649.09
2023-04-09T22:19:26.358Z,99652.47
2023-04-09T22:21:53.731Z,99643.84
2023-04-09T22:24:26.817Z,99659.50
2023-04-09T22:26:53.905Z,99647.56
2023-04-09T22:29:21.049Z,99653.28
2023-04-09T22:31:47.836Z,99642.81
2023-04-09T22:34:21.553Z,99644.47
2023-04-09T22:36:49.018Z,99650.59
2023-04-09T22:39:16.160Z,99655.19
2023-04-09T22:41:43.157Z,99656.94
2023-04-09T22:44:10.136Z,99651.59
2023-04-09T22:46:37.070Z,99646.16
2023-04-09T22:49:05.461Z,99654.97
2023-04-09T22:51:34.933Z,99655.94
2023-04-09T22:54:02.329Z,99661.91
2023-04-09T22:56:33.614Z,99649.50
2023-04-09T22:59:00.785Z,99653.16
2023-04-09T23:01:27.829Z,99650.69
2023-04-09T23:03:55.181Z,99654.91
2023-04-09T23:06:22.984Z,99649.66
2023-04-09T23:08:50.265Z,99651.31
2023-04-09T23:11:17.200Z,99650.38
2023-04-09T23:13:44.099Z,99651.31
2023-04-09T23:16:11.169Z,99645.13
2023-04-09T23:18:38.544Z,99646.38
2023-04-09T23:21:09.903Z,99651.78
2023-04-09T23:23:37.977Z,99645.47
2023-04-09T23:26:06.254Z,99659.53
2023-04-09T23:28:33.390Z,99657.00
2023-04-09T23:31:00.284Z,99647.44
2023-04-09T23:33:27.156Z,99647.59
2023-04-09T23:35:54.280Z,99651.19
2023-04-09T23:38:21.214Z,99644.44
2023-04-09T23:40:49.110Z,99655.13
2023-04-09T23:43:16.326Z,99637.94
2023-04-09T23:45:46.465Z,99641.69
2023-04-09T23:48:13.482Z,99649.19
2023-04-09T23:50:41.720Z,99649.31
2023-04-09T23:53:09.058Z,99644.75
2023-04-09T23:55:40.845Z,99634.44
2023-04-09T23:58:08.033Z,99636.34
